Aurora, NE

10:11 PM CDT on August 25, 2016 (GMT -0500)
Aurora Municipal

Weather History for KAUH - January, 2013

Change the Weather History Date:

Thursday, January 24, 2013

  Actual Average Record
Temperature  
Mean Temperature 14 °F -  
Max Temperature 22 °F 37 °F 68 °F (1981)
Min Temperature 5 °F 16 °F -7 °F (1969)
Degree Days  
Heating Degree Days 52    
Moisture  
Dew Point 4 °F    
Average Humidity 66    
Maximum Humidity 82    
Minimum Humidity 48    
Precipitation  
Precipitation 0.00 in - - ()
Sea Level Pressure  
Sea Level Pressure 30.28 in    
Wind  
Wind Speed 10 mph (SE)    
Max Wind Speed 14 mph    
Max Gust Speed 20 mph    
Visibility 10 miles    
Events      
Averages and records for this station are not official NWS values.
T = Trace of Precipitation, MM = Missing Value Source: NWS Daily Summary

Daily Weather History Graph

Daily Weather History Graph

Search for Another Location

Airport or City:

Trip Planner

Search our weather history database for the weather conditions in past years. The results will help you decide how hot, cold, wet, or windy it might be!

Date:

Astronomy

Jan. 24, 2013 Rise Set
Actual Time 7:48 AM CST 5:39 PM CST
Civil Twilight 7:19 AM CST 6:09 PM CST
Nautical Twilight 6:46 AM CST 6:42 PM CST
Astronomical Twilight 6:13 AM CST 7:15 PM CST
Moon 3:42 PM CST (1/24) 5:47 AM CST (1/24)
Length of Visible Light 10h 50m
Length of Day
9h 50m
Waxing Gibbous, 94% of the Moon is Illuminated
Jan 24
Waxing Gibbous
Jan 26
Full
Feb 3
Last Quarter
Feb 10
New
Feb 17
First Quarter

Hourly Weather History & Observations

Time (CST) Temp. Windchill Dew Point Humidity Pressure Visibility Wind Dir Wind Speed Gust Speed Precip Events Conditions
12:15 AM 13.5 °F -0.2 °F 7.5 °F 77% 30.45 in 10.0 mi NNE 11.5 mph - N/A   Clear
12:35 AM 13.1 °F 0.1 °F 7.5 °F 78% 30.46 in 10.0 mi NNE 10.4 mph - N/A   Clear
12:55 AM 12.6 °F 1.1 °F 6.8 °F 78% 30.45 in 10.0 mi NE 8.1 mph - N/A   Clear
1:15 AM 12.0 °F -2.7 °F 7.2 °F 81% 30.44 in 10.0 mi NE 12.7 mph - N/A   Clear
1:35 AM 11.8 °F -2.3 °F 6.6 °F 80% 30.44 in 10.0 mi NE 11.5 mph - N/A   Clear
1:55 AM 11.5 °F -1.1 °F 6.3 °F 80% 30.45 in 10.0 mi NE 9.2 mph - N/A   Clear
2:15 AM 11.1 °F -0.6 °F 5.9 °F 80% 30.45 in 10.0 mi NE 8.1 mph - N/A   Clear
2:35 AM 11.1 °F -1.6 °F 6.1 °F 80% 30.45 in 10.0 mi NE 9.2 mph - N/A   Clear
2:55 AM 10.9 °F -1.8 °F 5.9 °F 80% 30.44 in 10.0 mi ENE 9.2 mph - N/A   Clear
3:15 AM 10.4 °F -2.4 °F 5.0 °F 79% 30.45 in 10.0 mi ENE 9.2 mph - N/A   Clear
3:35 AM 10.2 °F -4.3 °F 3.9 °F 76% 30.43 in 10.0 mi ENE 11.5 mph - N/A   Clear
3:55 AM 9.5 °F -5.9 °F 3.7 °F 77% 30.42 in 10.0 mi ENE 12.7 mph - N/A   Clear
4:15 AM 9.1 °F -4.9 °F 3.7 °F 79% 30.41 in 10.0 mi ENE 10.4 mph - N/A   Clear
4:35 AM 8.6 °F -6.3 °F 3.7 °F 81% 30.41 in 10.0 mi ENE 11.5 mph - N/A   Clear
4:55 AM 8.6 °F -6.3 °F 4.1 °F 82% 30.41 in 10.0 mi ENE 11.5 mph - N/A   Clear
5:15 AM 7.7 °F -6.6 °F 2.7 °F 80% 30.42 in 10.0 mi ENE 10.4 mph - N/A   Clear
5:35 AM 7.5 °F -7.7 °F 2.3 °F 79% 30.42 in 10.0 mi ENE 11.5 mph - N/A   Clear
5:55 AM 6.8 °F -8.6 °F 1.2 °F 78% 30.42 in 10.0 mi ENE 11.5 mph - N/A   Clear
6:15 AM 6.6 °F -8.0 °F -0.2 °F 74% 30.42 in 10.0 mi East 10.4 mph - N/A   Clear
6:35 AM 5.9 °F -9.7 °F -0.8 °F 74% 30.40 in 10.0 mi East 11.5 mph - N/A   Clear
6:55 AM 5.7 °F -9.1 °F -0.4 °F 76% 30.39 in 10.0 mi East 10.4 mph - N/A   Clear
7:15 AM 5.4 °F -5.2 °F -0.6 °F 76% 30.40 in 10.0 mi ESE 5.8 mph - N/A   Clear
7:35 AM 5.2 °F -8.9 °F -0.4 °F 78% 30.41 in 10.0 mi ESE 9.2 mph - N/A   Clear
7:55 AM 5.0 °F -10.0 °F -0.6 °F 78% 30.40 in 10.0 mi ESE 10.4 mph - N/A   Clear
8:15 AM 5.0 °F -10.0 °F -1.3 °F 75% 30.40 in 10.0 mi ESE 10.4 mph - N/A   Clear
8:35 AM 5.5 °F -8.4 °F -0.9 °F 75% 30.40 in 10.0 mi ESE 9.2 mph - N/A   Clear
8:55 AM 5.9 °F -9.7 °F -0.6 °F 75% 30.39 in 10.0 mi ESE 11.5 mph - N/A   Clear
9:15 AM 6.4 °F -9.0 °F -0.4 °F 74% 30.39 in 10.0 mi SE 11.5 mph - N/A   Clear
9:35 AM 7.2 °F -9.6 °F -0.0 °F 72% 30.39 in 10.0 mi SE 13.8 mph 17.3 mph N/A   Clear
9:55 AM 7.5 °F -7.7 °F 0.5 °F 73% 30.39 in 10.0 mi SE 11.5 mph - N/A   Clear
10:15 AM 7.7 °F -5.8 °F 0.5 °F 72% 30.41 in 10.0 mi SE 9.2 mph - N/A   Clear
10:35 AM 8.6 °F -4.7 °F 1.4 °F 73% 30.39 in 10.0 mi ESE 9.2 mph - N/A   Clear
10:55 AM 9.7 °F -5.0 °F 2.1 °F 71% 30.38 in 10.0 mi ESE 11.5 mph - N/A   Clear
11:15 AM 10.9 °F -3.4 °F 1.9 °F 67% 30.36 in 10.0 mi SE 11.5 mph - N/A   Clear
11:35 AM 11.3 °F -4.3 °F 2.3 °F 67% 30.35 in 10.0 mi ESE 13.8 mph - N/A   Clear
11:55 AM 11.5 °F -3.4 °F 1.8 °F 65% 30.32 in 10.0 mi SE 12.7 mph - N/A   Clear
12:15 PM 12.7 °F -0.4 °F 3.0 °F 65% 30.31 in 10.0 mi SSE 10.4 mph - N/A   Clear
12:35 PM 13.6 °F 0.0 °F 3.0 °F 63% 30.30 in 10.0 mi SSE 11.5 mph - N/A   Scattered Clouds
12:55 PM 14.9 °F 0.9 °F 3.2 °F 60% 30.27 in 10.0 mi SSE 12.7 mph - N/A   Mostly Cloudy
1:15 PM 15.1 °F 1.8 °F 3.6 °F 60% 30.26 in 10.0 mi SE 11.5 mph - N/A   Scattered Clouds
1:35 PM 15.4 °F 2.3 °F 2.8 °F 58% 30.25 in 10.0 mi SSE 11.5 mph - N/A   Mostly Cloudy
1:55 PM 15.8 °F 2.7 °F 3.2 °F 58% 30.22 in 10.0 mi SSE 11.5 mph - N/A   Overcast
2:15 PM 16.2 °F 3.9 °F 3.7 °F 58% 30.21 in 10.0 mi SE 10.4 mph - N/A   Mostly Cloudy
2:35 PM 16.7 °F 3.2 °F 3.4 °F 56% 30.18 in 10.0 mi SSE 12.7 mph 18.4 mph N/A   Scattered Clouds
2:55 PM 17.1 °F 3.0 °F 3.7 °F 56% 30.18 in 10.0 mi SSE 13.8 mph - N/A   Overcast
3:15 PM 18.0 °F 4.8 °F 3.7 °F 54% 30.18 in 10.0 mi South 12.7 mph 17.3 mph N/A   Overcast
3:35 PM 18.5 °F 4.9 °F 3.9 °F 53% 30.17 in 10.0 mi SSE 13.8 mph - N/A   Overcast
3:55 PM 19.4 °F 6.6 °F 4.8 °F 53% 30.15 in 10.0 mi SSE 12.7 mph - N/A   Overcast
4:15 PM 20.1 °F 7.5 °F 5.0 °F 52% 30.12 in 10.0 mi SSE 12.7 mph - N/A   Overcast
4:35 PM 20.3 °F 7.2 °F 4.5 °F 50% 30.11 in 10.0 mi SSE 13.8 mph - N/A   Overcast
5:15 PM 20.8 °F 9.0 °F 5.0 °F 50% 30.09 in 10.0 mi SSE 11.5 mph 19.6 mph N/A   Overcast
5:35 PM 21.0 °F 8.6 °F 3.9 °F 48% 30.11 in 10.0 mi South 12.7 mph - N/A   Overcast
5:55 PM 21.0 °F 9.3 °F 4.5 °F 49% 30.11 in 10.0 mi South 11.5 mph - N/A   Overcast
6:15 PM 21.0 °F 9.9 °F 5.0 °F 50% 30.11 in 10.0 mi South 10.4 mph - N/A   Overcast
6:35 PM 21.2 °F 10.1 °F 5.4 °F 51% 30.11 in 10.0 mi South 10.4 mph - N/A   Overcast
6:55 PM 21.2 °F 8.9 °F 5.7 °F 51% 30.11 in 10.0 mi South 12.7 mph - N/A   Overcast
7:15 PM 21.6 °F 10.6 °F 6.8 °F 53% 30.09 in 10.0 mi South 10.4 mph - N/A   Overcast
7:35 PM 21.9 °F 13.4 °F 7.7 °F 54% 30.11 in 10.0 mi South 6.9 mph - N/A   Overcast
7:55 PM 22.1 °F 10.6 °F 6.6 °F 51% 30.10 in 10.0 mi South 11.5 mph - N/A   Overcast
8:15 PM 22.1 °F 13.7 °F 7.2 °F 53% 30.10 in 10.0 mi South 6.9 mph - N/A   Overcast
8:35 PM 21.7 °F 10.8 °F 7.3 °F 54% 30.09 in 10.0 mi South 10.4 mph - N/A   Mostly Cloudy
8:55 PM 21.2 °F 12.6 °F 8.1 °F 57% 30.10 in 10.0 mi SSW 6.9 mph - N/A   Scattered Clouds
9:15 PM 21.7 °F 17.0 °F 8.1 °F 56% 30.12 in 10.0 mi SSW 3.5 mph - N/A   Clear
9:35 PM 21.7 °F - 9.1 °F 58% 30.12 in 10.0 mi Calm Calm - N/A   Clear
9:55 PM 21.9 °F 17.2 °F 9.5 °F 59% 30.12 in 10.0 mi South 3.5 mph - N/A   Clear
10:15 PM 21.9 °F 17.2 °F 9.5 °F 59% 30.11 in 10.0 mi South 3.5 mph - N/A   Clear
10:35 PM 21.9 °F 15.7 °F 9.7 °F 59% 30.11 in 10.0 mi South 4.6 mph - N/A   Clear
10:55 PM 22.1 °F 17.4 °F 10.0 °F 60% 30.12 in 10.0 mi South 3.5 mph - N/A   Clear
11:15 PM 22.1 °F 15.9 °F 10.8 °F 62% 30.12 in 10.0 mi SSW 4.6 mph - N/A   Clear
11:35 PM 21.6 °F - 12.2 °F 67% 30.14 in 10.0 mi Calm Calm - N/A   Clear
11:55 PM 21.2 °F - 12.9 °F 70% 30.13 in 10.0 mi Calm Calm - N/A   Clear